Pagrindinis puslapis
METAR-TAF:

METAR-TAF

Oro uostai :

Nome, Aliaska, Jungtinės Amerikos Valstijos

platuma: 64-30-43N, ilguma: 165-26-42W, Aukštis: 11 m

Dabartinis oras

Ataskaita buvo paskelbta 40 minutes, ne 03:53 UTC
Vėjas 13 kt iš Vakarų/Šiaurės Vakarų
Temperatūra 4°C
Drėgmė 81%
Slėgis 1000 hPa
Matomumas: 16.1 km
Apsiniaukę ne aukštis 2600 ft

METAR: PAOM 210353Z 29013KT 10SM OVC026 04/01 A2952 RMK AO2 SLP995 T00440006

Laikas: 20:33 (04:33 UTC)

Prognozė

Ataskaita buvo paskelbta 4 valandos ir 59 minutes, ne 23:34 UTC
Prognozė galioja nuo 21 metu 00 UTC su 21 metu 24 UTC
Vėjas 15 kt iš Vakarų/Šiaurės Vakarų
Matomumas: 10 km
Išsisklaidę debesys ne aukštis 2500 ft
Su prošvaistėmis ne aukštis 3500 ft
Apsiniaukę ne aukštis 5000 ft
Nuo 21 metu 0600 UTC
Vėjas 6 kt iš Vakarų
Matomumas: 10 km
Išsisklaidę debesys ne aukštis 2500 ft
Su prošvaistėmis ne aukštis 3500 ft
Apsiniaukę ne aukštis 5000 ft

TAF: PAOM 202334Z 2100/2124 30015KT P6SM SCT025 BKN035 OVC050 FM210600 27006KT P6SM SCT025 BKN035 OVC050

Orai ataskaitas ir orų prognozės (METAR, TAF).

turimą stotys yra geltonos ir raudonos taškus žemėlapyje.

Perkelti pele per norėdami pamatyti stoties vardą.

Tada spustelėkite, norėdami matyti oro stebėjimo ir prognozės.

Norėdami pakeisti žemėlapį: spustelėkite ant žalios mygtukų su juodo kryžiaus žemyn,; žalią mygtuką su brūkšneliu, jei norite nutolinti; arba žalių rodyklių gretimoms žemėlapius.


METAR-TAF: